sensor_id;sensor_type;location;lat;lon;timestamp;temperature;humidity
18882;DHT22;9573;50.948;11.600;2023-07-22T00:01:00;12.90;99.90
18882;DHT22;9573;50.948;11.600;2023-07-22T00:03:27;12.90;99.90
18882;DHT22;9573;50.948;11.600;2023-07-22T00:06:04;12.90;99.90
18882;DHT22;9573;50.948;11.600;2023-07-22T00:08:32;12.80;99.90
18882;DHT22;9573;50.948;11.600;2023-07-22T00:10:59;12.80;99.90
18882;DHT22;9573;50.948;11.600;2023-07-22T00:13:26;12.80;99.90
18882;DHT22;9573;50.948;11.600;2023-07-22T00:15:53;12.80;99.90
18882;DHT22;9573;50.948;11.600;2023-07-22T00:18:22;12.80;99.90
18882;DHT22;9573;50.948;11.600;2023-07-22T00:20:49;12.80;99.90
18882;DHT22;9573;50.948;11.600;2023-07-22T00:23:17;12.80;99.90
18882;DHT22;9573;50.948;11.600;2023-07-22T00:25:45;12.90;99.90
18882;DHT22;9573;50.948;11.600;2023-07-22T00:28:13;12.90;99.90
18882;DHT22;9573;50.948;11.600;2023-07-22T00:30:41;13.00;99.90
18882;DHT22;9573;50.948;11.600;2023-07-22T00:33:08;13.10;99.90
18882;DHT22;9573;50.948;11.600;2023-07-22T00:35:36;13.20;99.90
18882;DHT22;9573;50.948;11.600;2023-07-22T00:38:03;13.20;99.90
18882;DHT22;9573;50.948;11.600;2023-07-22T00:40:31;13.30;99.90
18882;DHT22;9573;50.948;11.600;2023-07-22T00:42:58;13.40;99.90
18882;DHT22;9573;50.948;11.600;2023-07-22T00:45:25;13.40;99.90
18882;DHT22;9573;50.948;11.600;2023-07-22T00:47:52;13.40;99.90
18882;DHT22;9573;50.948;11.600;2023-07-22T00:50:19;13.30;99.90
18882;DHT22;9573;50.948;11.600;2023-07-22T00:52:49;13.30;99.90
18882;DHT22;9573;50.948;11.600;2023-07-22T00:55:16;13.20;99.90
18882;DHT22;9573;50.948;11.600;2023-07-22T00:57:43;13.10;99.90
18882;DHT22;9573;50.948;11.600;2023-07-22T01:00:11;13.00;99.90
18882;DHT22;9573;50.948;11.600;2023-07-22T01:02:41;13.00;99.90
18882;DHT22;9573;50.948;11.600;2023-07-22T01:05:10;12.90;99.90
18882;DHT22;9573;50.948;11.600;2023-07-22T01:07:38;12.80;99.90
18882;DHT22;9573;50.948;11.600;2023-07-22T01:10:07;12.70;99.90
18882;DHT22;9573;50.948;11.600;2023-07-22T01:12:35;12.60;99.90
18882;DHT22;9573;50.948;11.600;2023-07-22T01:15:02;12.60;99.90
18882;DHT22;9573;50.948;11.600;2023-07-22T01:17:33;12.60;99.90
18882;DHT22;9573;50.948;11.600;2023-07-22T01:20:01;12.60;99.90
18882;DHT22;9573;50.948;11.600;2023-07-22T01:22:30;12.50;99.90
18882;DHT22;9573;50.948;11.600;2023-07-22T01:25:00;12.60;99.90
18882;DHT22;9573;50.948;11.600;2023-07-22T01:27:27;12.80;99.90
18882;DHT22;9573;50.948;11.600;2023-07-22T01:29:54;12.90;99.90
18882;DHT22;9573;50.948;11.600;2023-07-22T01:32:21;13.10;99.90
18882;DHT22;9573;50.948;11.600;2023-07-22T01:34:48;13.20;99.90
18882;DHT22;9573;50.948;11.600;2023-07-22T01:37:16;13.30;99.90
18882;DHT22;9573;50.948;11.600;2023-07-22T01:39:43;13.30;99.90
18882;DHT22;9573;50.948;11.600;2023-07-22T01:42:11;13.20;99.90
18882;DHT22;9573;50.948;11.600;2023-07-22T01:44:40;13.10;99.90
18882;DHT22;9573;50.948;11.600;2023-07-22T01:47:07;13.00;99.90
18882;DHT22;9573;50.948;11.600;2023-07-22T01:49:34;12.90;99.90
18882;DHT22;9573;50.948;11.600;2023-07-22T01:52:01;12.80;99.90
18882;DHT22;9573;50.948;11.600;2023-07-22T01:54:28;12.70;99.90
18882;DHT22;9573;50.948;11.600;2023-07-22T01:56:55;12.70;99.90
18882;DHT22;9573;50.948;11.600;2023-07-22T01:59:23;12.60;99.90
18882;DHT22;9573;50.948;11.600;2023-07-22T02:01:51;12.50;99.90
18882;DHT22;9573;50.948;11.600;2023-07-22T02:04:18;12.50;99.90
18882;DHT22;9573;50.948;11.600;2023-07-22T02:06:45;12.40;99.90
18882;DHT22;9573;50.948;11.600;2023-07-22T02:09:13;12.40;99.90
18882;DHT22;9573;50.948;11.600;2023-07-22T02:11:40;12.40;99.90
18882;DHT22;9573;50.948;11.600;2023-07-22T02:14:07;12.40;99.90
18882;DHT22;9573;50.948;11.600;2023-07-22T02:16:36;12.50;99.90
18882;DHT22;9573;50.948;11.600;2023-07-22T02:19:04;12.50;99.90
18882;DHT22;9573;50.948;11.600;2023-07-22T02:21:31;12.60;99.90
18882;DHT22;9573;50.948;11.600;2023-07-22T02:23:58;12.60;99.90
18882;DHT22;9573;50.948;11.600;2023-07-22T02:26:25;12.60;99.90
18882;DHT22;9573;50.948;11.600;2023-07-22T02:28:52;12.60;99.90
18882;DHT22;9573;50.948;11.600;2023-07-22T02:31:20;12.60;99.90
18882;DHT22;9573;50.948;11.600;2023-07-22T02:33:49;12.60;99.90
18882;DHT22;9573;50.948;11.600;2023-07-22T02:36:17;12.50;99.90
18882;DHT22;9573;50.948;11.600;2023-07-22T02:38:44;12.40;99.90
18882;DHT22;9573;50.948;11.600;2023-07-22T02:41:11;12.40;99.90
18882;DHT22;9573;50.948;11.600;2023-07-22T02:43:38;12.30;99.90
18882;DHT22;9573;50.948;11.600;2023-07-22T02:46:06;12.20;99.90
18882;DHT22;9573;50.948;11.600;2023-07-22T02:48:33;12.20;99.90
18882;DHT22;9573;50.948;11.600;2023-07-22T02:51:06;12.10;99.90
18882;DHT22;9573;50.948;11.600;2023-07-22T02:53:35;12.10;99.90
18882;DHT22;9573;50.948;11.600;2023-07-22T02:56:03;12.00;99.90
18882;DHT22;9573;50.948;11.600;2023-07-22T02:58:32;12.00;99.90
18882;DHT22;9573;50.948;11.600;2023-07-22T03:01:00;12.00;99.90
18882;DHT22;9573;50.948;11.600;2023-07-22T03:03:27;11.90;99.90
18882;DHT22;9573;50.948;11.600;2023-07-22T03:05:54;11.90;99.90
18882;DHT22;9573;50.948;11.600;2023-07-22T03:08:24;11.90;99.90
18882;DHT22;9573;50.948;11.600;2023-07-22T03:10:51;11.80;99.90
18882;DHT22;9573;50.948;11.600;2023-07-22T03:13:18;11.80;99.90
18882;DHT22;9573;50.948;11.600;2023-07-22T03:15:45;11.80;99.90
18882;DHT22;9573;50.948;11.600;2023-07-22T03:18:13;11.70;99.90
18882;DHT22;9573;50.948;11.600;2023-07-22T03:20:40;11.80;99.90
18882;DHT22;9573;50.948;11.600;2023-07-22T03:23:08;11.90;99.90
18882;DHT22;9573;50.948;11.600;2023-07-22T03:25:36;12.00;99.90
18882;DHT22;9573;50.948;11.600;2023-07-22T03:28:05;12.20;99.90
18882;DHT22;9573;50.948;11.600;2023-07-22T03:30:32;12.30;99.90
18882;DHT22;9573;50.948;11.600;2023-07-22T03:33:00;12.40;99.90
18882;DHT22;9573;50.948;11.600;2023-07-22T03:35:27;12.50;99.90
18882;DHT22;9573;50.948;11.600;2023-07-22T03:37:54;12.50;99.90
18882;DHT22;9573;50.948;11.600;2023-07-22T03:40:21;12.50;99.90
18882;DHT22;9573;50.948;11.600;2023-07-22T03:42:55;12.50;99.90
18882;DHT22;9573;50.948;11.600;2023-07-22T03:45:23;12.40;99.90
18882;DHT22;9573;50.948;11.600;2023-07-22T03:47:51;12.40;99.90
18882;DHT22;9573;50.948;11.600;2023-07-22T03:50:19;12.40;99.90
18882;DHT22;9573;50.948;11.600;2023-07-22T03:52:46;12.40;99.90
18882;DHT22;9573;50.948;11.600;2023-07-22T03:55:14;12.40;99.90
18882;DHT22;9573;50.948;11.600;2023-07-22T03:57:41;12.40;99.90
18882;DHT22;9573;50.948;11.600;2023-07-22T04:00:10;12.50;99.90
18882;DHT22;9573;50.948;11.600;2023-07-22T04:02:38;12.50;99.90
18882;DHT22;9573;50.948;11.600;2023-07-22T04:05:06;12.60;99.90
18882;DHT22;9573;50.948;11.600;2023-07-22T04:07:34;12.60;99.90
18882;DHT22;9573;50.948;11.600;2023-07-22T04:10:01;12.70;99.90
18882;DHT22;9573;50.948;11.600;2023-07-22T04:12:29;12.80;99.90
18882;DHT22;9573;50.948;11.600;2023-07-22T04:14:56;12.90;99.90
18882;DHT22;9573;50.948;11.600;2023-07-22T04:17:25;12.90;99.90
18882;DHT22;9573;50.948;11.600;2023-07-22T04:19:52;13.00;99.90
18882;DHT22;9573;50.948;11.600;2023-07-22T04:22:20;13.20;99.90
18882;DHT22;9573;50.948;11.600;2023-07-22T04:24:48;14.20;99.90
18882;DHT22;9573;50.948;11.600;2023-07-22T04:27:15;15.00;99.90
18882;DHT22;9573;50.948;11.600;2023-07-22T04:29:42;15.20;99.90
18882;DHT22;9573;50.948;11.600;2023-07-22T04:32:09;15.00;99.90
18882;DHT22;9573;50.948;11.600;2023-07-22T04:34:38;15.00;99.90
18882;DHT22;9573;50.948;11.600;2023-07-22T04:37:06;15.10;99.90
18882;DHT22;9573;50.948;11.600;2023-07-22T04:39:33;15.50;99.90
18882;DHT22;9573;50.948;11.600;2023-07-22T04:42:00;16.10;99.90
18882;DHT22;9573;50.948;11.600;2023-07-22T04:44:27;17.30;99.90
18882;DHT22;9573;50.948;11.600;2023-07-22T04:46:55;19.30;99.90
18882;DHT22;9573;50.948;11.600;2023-07-22T04:49:22;20.30;99.90
18882;DHT22;9573;50.948;11.600;2023-07-22T04:51:51;21.90;99.90
18882;DHT22;9573;50.948;11.600;2023-07-22T04:54:18;23.10;99.90
18882;DHT22;9573;50.948;11.600;2023-07-22T04:56:45;24.30;99.90
18882;DHT22;9573;50.948;11.600;2023-07-22T04:59:13;25.10;99.90
18882;DHT22;9573;50.948;11.600;2023-07-22T05:01:40;25.70;99.90
18882;DHT22;9573;50.948;11.600;2023-07-22T05:04:07;26.40;99.90
18882;DHT22;9573;50.948;11.600;2023-07-22T05:06:34;26.90;99.90
18882;DHT22;9573;50.948;11.600;2023-07-22T05:09:03;27.30;99.90
18882;DHT22;9573;50.948;11.600;2023-07-22T05:11:30;27.70;99.90
18882;DHT22;9573;50.948;11.600;2023-07-22T05:13:58;28.00;97.60
18882;DHT22;9573;50.948;11.600;2023-07-22T05:16:25;28.40;95.60
18882;DHT22;9573;50.948;11.600;2023-07-22T05:18:52;28.80;94.50
18882;DHT22;9573;50.948;11.600;2023-07-22T05:21:19;29.20;92.00
18882;DHT22;9573;50.948;11.600;2023-07-22T05:23:46;29.80;90.50
18882;DHT22;9573;50.948;11.600;2023-07-22T05:26:15;29.90;88.40
18882;DHT22;9573;50.948;11.600;2023-07-22T05:28:42;30.10;87.40
18882;DHT22;9573;50.948;11.600;2023-07-22T05:31:09;30.70;85.50
18882;DHT22;9573;50.948;11.600;2023-07-22T05:33:36;31.10;83.40
18882;DHT22;9573;50.948;11.600;2023-07-22T05:36:04;31.40;82.20
18882;DHT22;9573;50.948;11.600;2023-07-22T05:38:31;31.80;81.20
18882;DHT22;9573;50.948;11.600;2023-07-22T05:40:59;32.10;77.40
18882;DHT22;9573;50.948;11.600;2023-07-22T05:43:27;32.20;75.90
18882;DHT22;9573;50.948;11.600;2023-07-22T05:45:54;32.40;75.20
18882;DHT22;9573;50.948;11.600;2023-07-22T05:48:21;32.70;74.20
18882;DHT22;9573;50.948;11.600;2023-07-22T05:50:48;33.10;74.00
18882;DHT22;9573;50.948;11.600;2023-07-22T05:53:16;33.50;71.10
18882;DHT22;9573;50.948;11.600;2023-07-22T05:55:43;33.90;69.50
18882;DHT22;9573;50.948;11.600;2023-07-22T05:58:15;33.80;69.40
18882;DHT22;9573;50.948;11.600;2023-07-22T06:00:45;34.10;67.50
18882;DHT22;9573;50.948;11.600;2023-07-22T06:03:12;34.20;66.00
18882;DHT22;9573;50.948;11.600;2023-07-22T06:05:40;34.30;65.30
18882;DHT22;9573;50.948;11.600;2023-07-22T06:08:07;34.50;65.40
18882;DHT22;9573;50.948;11.600;2023-07-22T06:10:34;35.20;64.30
18882;DHT22;9573;50.948;11.600;2023-07-22T06:13:03;35.20;63.90
18882;DHT22;9573;50.948;11.600;2023-07-22T06:15:30;35.70;62.50
18882;DHT22;9573;50.948;11.600;2023-07-22T06:17:59;36.30;61.30
18882;DHT22;9573;50.948;11.600;2023-07-22T06:20:26;36.30;60.20
18882;DHT22;9573;50.948;11.600;2023-07-22T06:22:53;37.00;59.10
18882;DHT22;9573;50.948;11.600;2023-07-22T06:25:24;37.50;57.80
18882;DHT22;9573;50.948;11.600;2023-07-22T06:27:51;37.40;56.30
18882;DHT22;9573;50.948;11.600;2023-07-22T06:30:19;37.40;57.30
18882;DHT22;9573;50.948;11.600;2023-07-22T06:32:46;37.40;55.90
18882;DHT22;9573;50.948;11.600;2023-07-22T06:35:15;38.10;55.20
18882;DHT22;9573;50.948;11.600;2023-07-22T06:37:42;38.10;53.40
18882;DHT22;9573;50.948;11.600;2023-07-22T06:40:10;38.30;52.90
18882;DHT22;9573;50.948;11.600;2023-07-22T06:42:37;38.70;52.00
18882;DHT22;9573;50.948;11.600;2023-07-22T06:45:05;38.90;50.90
18882;DHT22;9573;50.948;11.600;2023-07-22T06:47:33;39.00;50.10
18882;DHT22;9573;50.948;11.600;2023-07-22T06:50:02;39.20;49.70
18882;DHT22;9573;50.948;11.600;2023-07-22T06:52:31;39.30;48.40
18882;DHT22;9573;50.948;11.600;2023-07-22T06:54:58;38.50;49.10
18882;DHT22;9573;50.948;11.600;2023-07-22T06:57:25;36.50;51.00
18882;DHT22;9573;50.948;11.600;2023-07-22T06:59:56;34.80;52.60
18882;DHT22;9573;50.948;11.600;2023-07-22T07:02:27;34.80;54.10
18882;DHT22;9573;50.948;11.600;2023-07-22T07:04:54;35.00;52.00
18882;DHT22;9573;50.948;11.600;2023-07-22T07:07:21;33.60;53.50
18882;DHT22;9573;50.948;11.600;2023-07-22T07:09:50;33.70;54.00
18882;DHT22;9573;50.948;11.600;2023-07-22T07:12:17;35.70;51.70
18882;DHT22;9573;50.948;11.600;2023-07-22T07:14:44;37.00;50.50
18882;DHT22;9573;50.948;11.600;2023-07-22T07:17:11;38.30;48.40
18882;DHT22;9573;50.948;11.600;2023-07-22T07:19:40;39.20;47.70
18882;DHT22;9573;50.948;11.600;2023-07-22T07:22:07;39.40;46.30
18882;DHT22;9573;50.948;11.600;2023-07-22T07:24:34;39.80;46.30
18882;DHT22;9573;50.948;11.600;2023-07-22T07:27:04;40.00;44.50
18882;DHT22;9573;50.948;11.600;2023-07-22T07:29:32;39.50;46.20
18882;DHT22;9573;50.948;11.600;2023-07-22T07:32:02;40.10;44.30
18882;DHT22;9573;50.948;11.600;2023-07-22T07:34:30;40.30;43.00
18882;DHT22;9573;50.948;11.600;2023-07-22T07:36:58;40.80;42.60
18882;DHT22;9573;50.948;11.600;2023-07-22T07:39:25;40.90;42.40
18882;DHT22;9573;50.948;11.600;2023-07-22T07:41:52;41.10;42.80
18882;DHT22;9573;50.948;11.600;2023-07-22T07:44:25;41.30;42.70
18882;DHT22;9573;50.948;11.600;2023-07-22T07:46:52;41.30;41.70
18882;DHT22;9573;50.948;11.600;2023-07-22T07:49:22;41.60;41.70
18882;DHT22;9573;50.948;11.600;2023-07-22T07:51:49;41.40;41.60
18882;DHT22;9573;50.948;11.600;2023-07-22T07:54:16;41.10;41.50
18882;DHT22;9573;50.948;11.600;2023-07-22T07:56:43;40.70;41.30
18882;DHT22;9573;50.948;11.600;2023-07-22T07:59:11;41.00;40.60
18882;DHT22;9573;50.948;11.600;2023-07-22T08:01:40;40.90;41.50
18882;DHT22;9573;50.948;11.600;2023-07-22T08:04:08;40.80;41.10
18882;DHT22;9573;50.948;11.600;2023-07-22T08:06:35;41.30;41.10
18882;DHT22;9573;50.948;11.600;2023-07-22T08:09:03;41.60;40.60
18882;DHT22;9573;50.948;11.600;2023-07-22T08:11:31;41.80;40.50
18882;DHT22;9573;50.948;11.600;2023-07-22T08:13:59;42.20;40.30
18882;DHT22;9573;50.948;11.600;2023-07-22T08:16:27;42.20;39.60
18882;DHT22;9573;50.948;11.600;2023-07-22T08:18:58;42.00;40.00
18882;DHT22;9573;50.948;11.600;2023-07-22T08:21:25;41.20;40.50
18882;DHT22;9573;50.948;11.600;2023-07-22T08:23:53;40.40;41.30
18882;DHT22;9573;50.948;11.600;2023-07-22T08:26:20;39.30;41.80
18882;DHT22;9573;50.948;11.600;2023-07-22T08:28:47;38.60;43.00
18882;DHT22;9573;50.948;11.600;2023-07-22T08:31:15;39.40;42.50
18882;DHT22;9573;50.948;11.600;2023-07-22T08:33:42;39.30;41.80
18882;DHT22;9573;50.948;11.600;2023-07-22T08:36:11;38.00;42.90
18882;DHT22;9573;50.948;11.600;2023-07-22T08:38:38;39.00;42.70
18882;DHT22;9573;50.948;11.600;2023-07-22T08:41:06;40.20;41.00
18882;DHT22;9573;50.948;11.600;2023-07-22T08:43:35;40.10;40.80
18882;DHT22;9573;50.948;11.600;2023-07-22T08:46:05;39.10;42.30
18882;DHT22;9573;50.948;11.600;2023-07-22T08:48:41;38.70;42.00
18882;DHT22;9573;50.948;11.600;2023-07-22T08:51:18;39.90;41.30
18882;DHT22;9573;50.948;11.600;2023-07-22T08:53:47;40.10;41.30
18882;DHT22;9573;50.948;11.600;2023-07-22T08:56:15;38.60;42.00
18882;DHT22;9573;50.948;11.600;2023-07-22T08:58:43;37.40;43.00
18882;DHT22;9573;50.948;11.600;2023-07-22T09:01:12;37.70;42.20
18882;DHT22;9573;50.948;11.600;2023-07-22T09:03:43;37.60;42.10
18882;DHT22;9573;50.948;11.600;2023-07-22T09:06:19;35.70;44.60
18882;DHT22;9573;50.948;11.600;2023-07-22T09:08:52;35.30;46.00
18882;DHT22;9573;50.948;11.600;2023-07-22T09:11:20;37.70;44.40
18882;DHT22;9573;50.948;11.600;2023-07-22T09:13:49;37.70;42.60
18882;DHT22;9573;50.948;11.600;2023-07-22T09:16:18;37.40;43.10
18882;DHT22;9573;50.948;11.600;2023-07-22T09:18:46;36.70;43.50
18882;DHT22;9573;50.948;11.600;2023-07-22T09:21:16;35.40;44.90
18882;DHT22;9573;50.948;11.600;2023-07-22T09:23:47;35.80;45.40
18882;DHT22;9573;50.948;11.600;2023-07-22T09:26:18;38.00;43.40
18882;DHT22;9573;50.948;11.600;2023-07-22T09:28:53;37.90;42.00
18882;DHT22;9573;50.948;11.600;2023-07-22T09:31:23;37.30;43.70
18882;DHT22;9573;50.948;11.600;2023-07-22T09:33:52;37.40;43.10
18882;DHT22;9573;50.948;11.600;2023-07-22T09:36:24;35.90;44.80
18882;DHT22;9573;50.948;11.600;2023-07-22T09:39:01;36.40;44.90
18882;DHT22;9573;50.948;11.600;2023-07-22T09:41:29;38.00;42.70
18882;DHT22;9573;50.948;11.600;2023-07-22T09:44:02;37.90;42.90
18882;DHT22;9573;50.948;11.600;2023-07-22T09:46:31;36.40;44.60
18882;DHT22;9573;50.948;11.600;2023-07-22T09:49:05;34.40;46.90
18882;DHT22;9573;50.948;11.600;2023-07-22T09:51:37;32.30;48.80
18882;DHT22;9573;50.948;11.600;2023-07-22T09:54:08;31.70;50.20
18882;DHT22;9573;50.948;11.600;2023-07-22T09:56:44;33.90;47.20
18882;DHT22;9573;50.948;11.600;2023-07-22T09:59:13;36.30;44.80
18882;DHT22;9573;50.948;11.600;2023-07-22T10:01:41;37.30;42.90
18882;DHT22;9573;50.948;11.600;2023-07-22T10:04:16;37.10;42.80
18882;DHT22;9573;50.948;11.600;2023-07-22T10:06:45;36.40;43.80
18882;DHT22;9573;50.948;11.600;2023-07-22T10:09:14;35.60;44.50
18882;DHT22;9573;50.948;11.600;2023-07-22T10:11:44;34.70;45.40
18882;DHT22;9573;50.948;11.600;2023-07-22T10:14:12;34.40;46.30
18882;DHT22;9573;50.948;11.600;2023-07-22T10:16:40;34.40;46.00
18882;DHT22;9573;50.948;11.600;2023-07-22T10:19:09;34.40;45.80
18882;DHT22;9573;50.948;11.600;2023-07-22T10:21:37;33.50;47.50
18882;DHT22;9573;50.948;11.600;2023-07-22T10:24:06;32.00;48.60
18882;DHT22;9573;50.948;11.600;2023-07-22T10:26:34;30.70;49.60
18882;DHT22;9573;50.948;11.600;2023-07-22T10:29:02;30.00;50.40
18882;DHT22;9573;50.948;11.600;2023-07-22T10:31:30;29.40;51.40
18882;DHT22;9573;50.948;11.600;2023-07-22T10:33:58;28.90;52.60
18882;DHT22;9573;50.948;11.600;2023-07-22T10:36:29;28.30;53.40
18882;DHT22;9573;50.948;11.600;2023-07-22T10:38:57;27.90;54.90
18882;DHT22;9573;50.948;11.600;2023-07-22T10:41:26;27.40;55.00
18882;DHT22;9573;50.948;11.600;2023-07-22T10:43:55;27.10;55.60
18882;DHT22;9573;50.948;11.600;2023-07-22T10:46:33;27.00;56.00
18882;DHT22;9573;50.948;11.600;2023-07-22T10:49:09;27.10;57.00
18882;DHT22;9573;50.948;11.600;2023-07-22T10:51:39;27.70;55.80
18882;DHT22;9573;50.948;11.600;2023-07-22T10:54:13;27.90;55.50
18882;DHT22;9573;50.948;11.600;2023-07-22T10:56:43;28.20;55.30
18882;DHT22;9573;50.948;11.600;2023-07-22T10:59:11;29.70;53.60
18882;DHT22;9573;50.948;11.600;2023-07-22T11:01:39;31.70;50.80
18882;DHT22;9573;50.948;11.600;2023-07-22T11:04:09;32.20;49.80
18882;DHT22;9573;50.948;11.600;2023-07-22T11:06:57;32.50;49.70
18882;DHT22;9573;50.948;11.600;2023-07-22T11:09:36;33.50;48.10
18882;DHT22;9573;50.948;11.600;2023-07-22T11:12:07;33.80;47.50
18882;DHT22;9573;50.948;11.600;2023-07-22T11:14:38;34.00;47.10
18882;DHT22;9573;50.948;11.600;2023-07-22T11:17:07;34.10;45.30
18882;DHT22;9573;50.948;11.600;2023-07-22T11:19:37;34.40;45.60
18882;DHT22;9573;50.948;11.600;2023-07-22T11:22:04;34.90;46.00
18882;DHT22;9573;50.948;11.600;2023-07-22T11:24:33;35.10;44.70
18882;DHT22;9573;50.948;11.600;2023-07-22T11:27:03;35.10;45.20
18882;DHT22;9573;50.948;11.600;2023-07-22T11:29:32;35.50;44.50
18882;DHT22;9573;50.948;11.600;2023-07-22T11:31:59;35.30;44.20
18882;DHT22;9573;50.948;11.600;2023-07-22T11:34:27;35.40;44.40
18882;DHT22;9573;50.948;11.600;2023-07-22T11:36:56;34.80;44.60
18882;DHT22;9573;50.948;11.600;2023-07-22T11:39:24;34.60;45.10
18882;DHT22;9573;50.948;11.600;2023-07-22T11:41:53;34.00;45.60
18882;DHT22;9573;50.948;11.600;2023-07-22T11:44:21;32.90;46.70
18882;DHT22;9573;50.948;11.600;2023-07-22T11:46:53;31.90;47.90
18882;DHT22;9573;50.948;11.600;2023-07-22T11:49:25;31.60;48.70
18882;DHT22;9573;50.948;11.600;2023-07-22T11:51:57;32.10;48.40
18882;DHT22;9573;50.948;11.600;2023-07-22T11:54:25;33.10;48.20
18882;DHT22;9573;50.948;11.600;2023-07-22T11:56:53;33.10;46.20
18882;DHT22;9573;50.948;11.600;2023-07-22T11:59:34;32.20;47.30
18882;DHT22;9573;50.948;11.600;2023-07-22T12:02:03;31.90;48.20
18882;DHT22;9573;50.948;11.600;2023-07-22T12:04:31;32.40;47.90
18882;DHT22;9573;50.948;11.600;2023-07-22T12:06:59;32.60;47.00
18882;DHT22;9573;50.948;11.600;2023-07-22T12:09:26;32.20;47.00
18882;DHT22;9573;50.948;11.600;2023-07-22T12:11:56;31.60;48.30
18882;DHT22;9573;50.948;11.600;2023-07-22T12:14:25;30.90;48.80
18882;DHT22;9573;50.948;11.600;2023-07-22T12:17:00;30.00;50.00
18882;DHT22;9573;50.948;11.600;2023-07-22T12:19:29;29.60;50.80
18882;DHT22;9573;50.948;11.600;2023-07-22T12:21:56;29.20;51.20
18882;DHT22;9573;50.948;11.600;2023-07-22T12:24:24;28.70;51.70
18882;DHT22;9573;50.948;11.600;2023-07-22T12:26:51;28.50;52.30
18882;DHT22;9573;50.948;11.600;2023-07-22T12:29:18;28.50;52.50
18882;DHT22;9573;50.948;11.600;2023-07-22T12:31:45;28.60;52.70
18882;DHT22;9573;50.948;11.600;2023-07-22T12:34:12;28.50;52.30
18882;DHT22;9573;50.948;11.600;2023-07-22T12:36:41;28.60;52.50
18882;DHT22;9573;50.948;11.600;2023-07-22T12:39:08;28.40;52.90
18882;DHT22;9573;50.948;11.600;2023-07-22T12:41:35;28.60;53.50
18882;DHT22;9573;50.948;11.600;2023-07-22T12:44:02;28.70;53.40
18882;DHT22;9573;50.948;11.600;2023-07-22T12:46:29;28.90;53.30
18882;DHT22;9573;50.948;11.600;2023-07-22T12:48:57;28.70;53.00
18882;DHT22;9573;50.948;11.600;2023-07-22T12:51:24;28.50;54.20
18882;DHT22;9573;50.948;11.600;2023-07-22T12:53:52;28.60;54.00
18882;DHT22;9573;50.948;11.600;2023-07-22T12:56:19;28.80;54.30
18882;DHT22;9573;50.948;11.600;2023-07-22T12:58:46;29.10;53.80
18882;DHT22;9573;50.948;11.600;2023-07-22T13:01:13;29.40;53.00
18882;DHT22;9573;50.948;11.600;2023-07-22T13:03:40;29.90;52.50
18882;DHT22;9573;50.948;11.600;2023-07-22T13:06:07;30.00;52.30
18882;DHT22;9573;50.948;11.600;2023-07-22T13:08:34;29.80;52.60
18882;DHT22;9573;50.948;11.600;2023-07-22T13:11:03;29.40;52.60
18882;DHT22;9573;50.948;11.600;2023-07-22T13:13:30;29.30;53.40
18882;DHT22;9573;50.948;11.600;2023-07-22T13:15:57;29.10;52.40
18882;DHT22;9573;50.948;11.600;2023-07-22T13:18:24;28.70;52.70
18882;DHT22;9573;50.948;11.600;2023-07-22T13:20:51;28.50;53.50
18882;DHT22;9573;50.948;11.600;2023-07-22T13:23:18;28.40;53.60
18882;DHT22;9573;50.948;11.600;2023-07-22T13:25:45;28.30;54.10
18882;DHT22;9573;50.948;11.600;2023-07-22T13:28:14;28.60;53.80
18882;DHT22;9573;50.948;11.600;2023-07-22T13:30:41;28.60;53.60
18882;DHT22;9573;50.948;11.600;2023-07-22T13:33:08;28.60;53.10
18882;DHT22;9573;50.948;11.600;2023-07-22T13:35:35;28.60;53.00
18882;DHT22;9573;50.948;11.600;2023-07-22T13:38:02;28.70;53.40
18882;DHT22;9573;50.948;11.600;2023-07-22T13:40:29;28.90;53.50
18882;DHT22;9573;50.948;11.600;2023-07-22T13:42:56;29.10;53.60
18882;DHT22;9573;50.948;11.600;2023-07-22T13:45:26;29.10;53.40
18882;DHT22;9573;50.948;11.600;2023-07-22T13:47:53;28.90;53.30
18882;DHT22;9573;50.948;11.600;2023-07-22T13:50:20;28.60;54.20
18882;DHT22;9573;50.948;11.600;2023-07-22T13:52:49;28.40;54.90
18882;DHT22;9573;50.948;11.600;2023-07-22T13:55:16;28.30;54.80
18882;DHT22;9573;50.948;11.600;2023-07-22T13:57:43;28.10;55.00
18882;DHT22;9573;50.948;11.600;2023-07-22T14:00:11;27.60;55.90
18882;DHT22;9573;50.948;11.600;2023-07-22T14:02:41;27.20;56.40
18882;DHT22;9573;50.948;11.600;2023-07-22T14:05:08;27.10;56.90
18882;DHT22;9573;50.948;11.600;2023-07-22T14:07:36;27.10;57.20
18882;DHT22;9573;50.948;11.600;2023-07-22T14:10:04;27.20;57.20
18882;DHT22;9573;50.948;11.600;2023-07-22T14:12:31;27.40;57.30
18882;DHT22;9573;50.948;11.600;2023-07-22T14:14:58;27.40;56.90
18882;DHT22;9573;50.948;11.600;2023-07-22T14:17:25;27.50;56.80
18882;DHT22;9573;50.948;11.600;2023-07-22T14:19:54;27.60;56.60
18882;DHT22;9573;50.948;11.600;2023-07-22T14:22:21;27.60;56.60
18882;DHT22;9573;50.948;11.600;2023-07-22T14:24:48;27.50;56.70
18882;DHT22;9573;50.948;11.600;2023-07-22T14:27:15;27.60;57.10
18882;DHT22;9573;50.948;11.600;2023-07-22T14:29:42;27.60;57.00
18882;DHT22;9573;50.948;11.600;2023-07-22T14:32:09;27.50;57.90
18882;DHT22;9573;50.948;11.600;2023-07-22T14:34:36;27.50;56.90
18882;DHT22;9573;50.948;11.600;2023-07-22T14:37:05;27.50;57.20
18882;DHT22;9573;50.948;11.600;2023-07-22T14:39:32;27.40;57.70
18882;DHT22;9573;50.948;11.600;2023-07-22T14:42:00;27.40;57.80
18882;DHT22;9573;50.948;11.600;2023-07-22T14:44:27;27.30;57.50
18882;DHT22;9573;50.948;11.600;2023-07-22T14:46:54;27.20;57.70
18882;DHT22;9573;50.948;11.600;2023-07-22T14:49:21;27.00;57.90
18882;DHT22;9573;50.948;11.600;2023-07-22T14:51:48;26.80;58.30
18882;DHT22;9573;50.948;11.600;2023-07-22T14:54:17;26.80;58.60
18882;DHT22;9573;50.948;11.600;2023-07-22T14:56:44;26.70;58.30
18882;DHT22;9573;50.948;11.600;2023-07-22T14:59:13;26.60;58.30
18882;DHT22;9573;50.948;11.600;2023-07-22T15:01:42;26.60;57.90
18882;DHT22;9573;50.948;11.600;2023-07-22T15:04:09;26.60;58.20
18882;DHT22;9573;50.948;11.600;2023-07-22T15:06:36;27.00;58.10
18882;DHT22;9573;50.948;11.600;2023-07-22T15:09:03;27.40;57.10
18882;DHT22;9573;50.948;11.600;2023-07-22T15:11:34;27.60;57.00
18882;DHT22;9573;50.948;11.600;2023-07-22T15:14:02;27.50;57.30
18882;DHT22;9573;50.948;11.600;2023-07-22T15:16:29;27.50;57.40
18882;DHT22;9573;50.948;11.600;2023-07-22T15:18:56;27.10;57.40
18882;DHT22;9573;50.948;11.600;2023-07-22T15:21:23;26.90;58.20
18882;DHT22;9573;50.948;11.600;2023-07-22T15:23:50;26.70;58.20
18882;DHT22;9573;50.948;11.600;2023-07-22T15:26:17;26.70;58.20
18882;DHT22;9573;50.948;11.600;2023-07-22T15:28:46;26.80;58.40
18882;DHT22;9573;50.948;11.600;2023-07-22T15:31:14;27.00;58.40
18882;DHT22;9573;50.948;11.600;2023-07-22T15:33:43;27.20;58.40
18882;DHT22;9573;50.948;11.600;2023-07-22T15:36:10;27.20;58.10